Terminal Aerodrome Forecast
Issued by NWS

Home | Current Version | Previous Version | Text Only | Print | Product List | Glossary On
Versions: 1 2 3 4 5 6 7 8 9 10 11 12 13 14 15
122
FTUS46 KSEW 172321
TAFOLM
TAF
KOLM 172321Z 1800/1824 24009KT P6SM FEW040 SCT200
     FM180300 18005KT P6SM SCT100 SCT200
     FM181200 20005KT P6SM BKN050 OVC100
     FM181500 18010KT P6SM -RA OVC025=

USA.gov is the U.S. government's official web portal to all federal, state and local government web resources and services.